Time;durP1;ratioP1;P1;durP2;ratioP2;P2;SDS_P1;SDS_P2;PMS_P1;PMS_P2;Temp;Humidity;BMP_temperature;BMP_pressure;BME280_temperature;BME280_humidity;BME280_pressure;Samples;Min_cycle;Max_cycle;Signal;HPM_P1;HPM_P2
2022/10/12 00:00:53;;;;;;;26.67;16.85;;;;;;;;;;5132825;27;20050;-69
2022/10/12 00:03:57;;;;;;;26.77;16.15;;;;;;;;;;5132608;27;20047;-68
2022/10/12 00:07:01;;;;;;;26.25;16.20;;;;;;;;;;5119831;27;20042;-69
2022/10/12 00:10:06;;;;;;;22.85;15.15;;;;;;;;;;5132472;27;20046;-69
2022/10/12 00:13:10;;;;;;;21.48;15.85;;;;;;;;;;5132462;27;20053;-69
2022/10/12 00:16:16;;;;;;;21.83;15.35;;;;;;;;;;5133118;27;20045;-69
2022/10/12 00:19:20;;;;;;;20.30;14.68;;;;;;;;;;5132670;27;20046;-69
2022/10/12 00:22:25;;;;;;;20.48;15.20;;;;;;;;;;5132211;27;20508;-70
2022/10/12 00:25:29;;;;;;;22.63;15.75;;;;;;;;;;5132241;27;20042;-68
2022/10/12 00:28:33;;;;;;;22.35;15.88;;;;;;;;;;5132369;27;20050;-68
2022/10/12 00:31:38;;;;;;;34.38;15.82;;;;;;;;;;5132293;27;20390;-69
2022/10/12 00:34:42;;;;;;;26.58;14.90;;;;;;;;;;5132317;27;20046;-69
2022/10/12 00:37:46;;;;;;;21.88;14.90;;;;;;;;;;5132205;27;20396;-69
2022/10/12 00:40:50;;;;;;;18.42;14.60;;;;;;;;;;5131795;27;20054;-69
2022/10/12 00:43:55;;;;;;;21.92;14.70;;;;;;;;;;5131779;28;20050;-69
2022/10/12 00:47:00;;;;;;;22.08;14.60;;;;;;;;;;5132379;28;20035;-69
2022/10/12 00:50:14;;;;;;;22.83;15.15;;;;;;;;;;5131808;28;20038;-69
2022/10/12 00:53:21;;;;;;;20.23;14.98;;;;;;;;;;5131866;27;20038;-69
2022/10/12 00:56:27;;;;;;;21.58;14.85;;;;;;;;;;5132227;27;20046;-69
2022/10/12 00:59:36;;;;;;;21.65;14.98;;;;;;;;;;5131988;28;20050;-69
2022/10/12 01:02:41;;;;;;;18.10;14.32;;;;;;;;;;5131956;28;20145;-69
2022/10/12 01:05:45;;;;;;;23.08;15.77;;;;;;;;;;5131745;28;20042;-69
2022/10/12 01:08:50;;;;;;;22.42;15.55;;;;;;;;;;5132181;27;20042;-69
2022/10/12 01:11:54;;;;;;;20.25;14.38;;;;;;;;;;5131992;28;20076;-69
2022/10/12 01:14:58;;;;;;;22.98;15.20;;;;;;;;;;5131984;27;20043;-69
2022/10/12 01:18:09;;;;;;;21.63;14.60;;;;;;;;;;5132102;28;20065;-69
2022/10/12 01:21:18;;;;;;;19.83;15.00;;;;;;;;;;5131929;28;20038;-69
2022/10/12 01:24:34;;;;;;;19.38;15.07;;;;;;;;;;5135376;27;20054;-69
2022/10/12 01:27:44;;;;;;;21.25;14.98;;;;;;;;;;5135735;27;20042;-69
2022/10/12 01:30:51;;;;;;;31.75;15.40;;;;;;;;;;5135664;27;20505;-69
2022/10/12 01:34:00;;;;;;;18.17;15.13;;;;;;;;;;5135642;27;20062;-69
2022/10/12 01:37:07;;;;;;;20.02;14.45;;;;;;;;;;5135440;27;20083;-69
2022/10/12 01:40:14;;;;;;;20.95;14.10;;;;;;;;;;5135528;27;20520;-69
2022/10/12 01:43:20;;;;;;;25.27;16.13;;;;;;;;;;5135070;27;20050;-69
2022/10/12 01:46:25;;;;;;;22.83;14.45;;;;;;;;;;5135620;27;20050;-69
2022/10/12 01:49:32;;;;;;;24.55;15.57;;;;;;;;;;5135489;27;20046;-69
2022/10/12 01:52:40;;;;;;;22.88;16.05;;;;;;;;;;5135296;27;20042;-69
2022/10/12 01:55:48;;;;;;;22.95;15.68;;;;;;;;;;5135047;27;20046;-69
2022/10/12 01:59:08;;;;;;;23.27;15.55;;;;;;;;;;5135330;27;20042;-69
2022/10/12 02:02:30;;;;;;;21.58;14.98;;;;;;;;;;5134727;27;20054;-69
2022/10/12 02:05:42;;;;;;;23.15;14.05;;;;;;;;;;5135064;27;20509;-69
2022/10/12 02:08:53;;;;;;;18.60;15.32;;;;;;;;;;5134978;27;20038;-69
2022/10/12 02:12:00;;;;;;;27.90;15.15;;;;;;;;;;5135125;27;20390;-69
2022/10/12 02:15:07;;;;;;;19.67;15.43;;;;;;;;;;5135713;27;20394;-69
2022/10/12 02:18:14;;;;;;;23.73;16.02;;;;;;;;;;5135177;27;20065;-68
2022/10/12 02:21:20;;;;;;;21.85;16.95;;;;;;;;;;5134544;27;20051;-68
2022/10/12 02:24:24;;;;;;;25.30;16.23;;;;;;;;;;5134701;27;20505;-68
2022/10/12 02:27:29;;;;;;;21.38;16.40;;;;;;;;;;5134520;27;20468;-69
2022/10/12 02:30:36;;;;;;;25.80;15.95;;;;;;;;;;5122026;27;20042;-69
2022/10/12 02:33:45;;;;;;;25.52;15.15;;;;;;;;;;5134396;27;20042;-68
2022/10/12 02:36:52;;;;;;;21.00;15.32;;;;;;;;;;5122188;27;20394;-68
2022/10/12 02:40:02;;;;;;;20.92;15.00;;;;;;;;;;5121325;27;20406;-68
2022/10/12 02:43:10;;;;;;;22.20;15.32;;;;;;;;;;5134095;27;20078;-68
2022/10/12 02:46:15;;;;;;;20.63;14.73;;;;;;;;;;5134395;27;20038;-68
2022/10/12 02:49:22;;;;;;;24.80;15.38;;;;;;;;;;5134208;27;20394;-69
2022/10/12 02:52:26;;;;;;;20.42;15.15;;;;;;;;;;5133982;27;20042;-69
2022/10/12 02:55:31;;;;;;;20.08;14.95;;;;;;;;;;5134288;27;20042;-68
2022/10/12 02:58:35;;;;;;;19.45;14.60;;;;;;;;;;5133949;27;20043;-69
2022/10/12 03:01:39;;;;;;;22.35;14.80;;;;;;;;;;5133869;27;20046;-69
2022/10/12 03:04:44;;;;;;;18.35;13.70;;;;;;;;;;5133830;27;20113;-68
2022/10/12 03:07:48;;;;;;;20.48;15.02;;;;;;;;;;5121387;27;20390;-69
2022/10/12 03:10:52;;;;;;;24.80;15.15;;;;;;;;;;5133525;27;20062;-69
2022/10/12 03:13:57;;;;;;;18.98;13.65;;;;;;;;;;5133921;27;20501;-69
2022/10/12 03:17:01;;;;;;;19.25;13.70;;;;;;;;;;5121217;27;20043;-69
2022/10/12 03:20:06;;;;;;;19.80;14.10;;;;;;;;;;5133419;27;20042;-69
2022/10/12 03:23:10;;;;;;;18.67;14.15;;;;;;;;;;5133438;27;20505;-69
2022/10/12 03:26:14;;;;;;;19.98;14.68;;;;;;;;;;5133690;27;20046;-69
2022/10/12 03:29:18;;;;;;;26.00;16.23;;;;;;;;;;5133223;27;20398;-69
2022/10/12 03:32:22;;;;;;;21.60;13.82;;;;;;;;;;5133103;27;20276;-69
2022/10/12 03:35:27;;;;;;;20.30;14.48;;;;;;;;;;5133533;27;20506;-69
2022/10/12 03:38:32;;;;;;;20.45;14.68;;;;;;;;;;5132895;27;20057;-69
2022/10/12 03:41:36;;;;;;;21.38;14.65;;;;;;;;;;5132636;27;20062;-69
2022/10/12 03:44:40;;;;;;;26.08;14.73;;;;;;;;;;5133155;27;20497;-69
2022/10/12 03:47:45;;;;;;;20.05;14.73;;;;;;;;;;5133073;27;20031;-69
2022/10/12 03:50:50;;;;;;;21.88;15.98;;;;;;;;;;5132875;27;20034;-69
2022/10/12 03:53:54;;;;;;;18.13;14.73;;;;;;;;;;5120312;27;20035;-69
2022/10/12 03:56:58;;;;;;;21.83;15.10;;;;;;;;;;5133006;27;20043;-69
2022/10/12 04:00:03;;;;;;;19.27;14.63;;;;;;;;;;5132880;27;20030;-69
2022/10/12 04:03:15;;;;;;;23.20;14.98;;;;;;;;;;5132358;27;20050;-68
2022/10/12 04:06:19;;;;;;;21.88;14.15;;;;;;;;;;5132683;27;20038;-68
2022/10/12 04:09:25;;;;;;;23.95;14.60;;;;;;;;;;5132834;27;20046;-68
2022/10/12 04:12:29;;;;;;;21.15;15.18;;;;;;;;;;5132317;27;20394;-69
2022/10/12 04:15:33;;;;;;;29.00;14.50;;;;;;;;;;5132733;27;20046;-69
2022/10/12 04:18:38;;;;;;;22.45;15.00;;;;;;;;;;5132751;27;20050;-69
2022/10/12 04:21:42;;;;;;;24.40;15.60;;;;;;;;;;5132015;27;20053;-69
2022/10/12 04:24:46;;;;;;;29.85;15.70;;;;;;;;;;5132212;27;20061;-69
2022/10/12 04:27:51;;;;;;;25.60;15.85;;;;;;;;;;5132589;27;20371;-68
2022/10/12 04:30:55;;;;;;;23.13;16.02;;;;;;;;;;5132262;27;20496;-69
2022/10/12 04:34:00;;;;;;;20.42;16.02;;;;;;;;;;5132422;27;20177;-69
2022/10/12 04:37:04;;;;;;;23.90;17.27;;;;;;;;;;5132444;27;20058;-69
2022/10/12 04:40:08;;;;;;;29.38;14.45;;;;;;;;;;5119383;28;20038;-68
2022/10/12 04:43:12;;;;;;;20.38;13.93;;;;;;;;;;5131660;27;20469;-68
2022/10/12 04:46:17;;;;;;;53.28;18.27;;;;;;;;;;5132219;28;20050;-69
2022/10/12 04:49:21;;;;;;;54.05;16.73;;;;;;;;;;5132157;28;20505;-69
2022/10/12 04:52:25;;;;;;;26.63;15.60;;;;;;;;;;5132054;28;20046;-69
2022/10/12 04:55:29;;;;;;;31.40;14.65;;;;;;;;;;5131935;27;20114;-69
2022/10/12 04:58:34;;;;;;;24.02;15.10;;;;;;;;;;5136359;27;20046;-68
2022/10/12 05:01:38;;;;;;;36.03;16.33;;;;;;;;;;5136626;27;20046;-70
2022/10/12 05:04:42;;;;;;;40.33;17.50;;;;;;;;;;5123882;27;20054;-68
2022/10/12 05:07:47;;;;;;;35.67;16.58;;;;;;;;;;5136359;27;20046;-70
2022/10/12 05:10:51;;;;;;;24.13;15.30;;;;;;;;;;5136070;27;20043;-68
2022/10/12 05:13:56;;;;;;;28.42;17.13;;;;;;;;;;5136121;27;20043;-68
2022/10/12 05:17:00;;;;;;;23.65;15.73;;;;;;;;;;5136214;27;20046;-70
2022/10/12 05:20:05;;;;;;;29.33;15.90;;;;;;;;;;5123226;27;20093;-70
2022/10/12 05:23:10;;;;;;;24.33;15.13;;;;;;;;;;5135592;27;20426;-70
2022/10/12 05:26:15;;;;;;;24.02;16.67;;;;;;;;;;5135712;27;20042;-70
2022/10/12 05:29:20;;;;;;;26.65;16.05;;;;;;;;;;5135358;27;20046;-70
2022/10/12 05:32:24;;;;;;;27.92;17.40;;;;;;;;;;5135219;27;20035;-67
2022/10/12 05:35:29;;;;;;;48.45;29.50;;;;;;;;;;5135169;27;20038;-64
2022/10/12 05:38:33;;;;;;;87.57;46.15;;;;;;;;;;5135535;27;20050;-64
2022/10/12 05:41:37;;;;;;;116.32;66.25;;;;;;;;;;5134707;27;20055;-66
2022/10/12 05:44:42;;;;;;;104.50;57.85;;;;;;;;;;5135550;27;20046;-64
2022/10/12 05:47:46;;;;;;;94.95;49.83;;;;;;;;;;5135461;27;20034;-64
2022/10/12 05:50:54;;;;;;;86.78;49.33;;;;;;;;;;5135467;27;20046;-64
2022/10/12 05:53:58;;;;;;;77.65;42.95;;;;;;;;;;5122578;27;20042;-64
2022/10/12 05:57:03;;;;;;;61.55;33.47;;;;;;;;;;5134995;27;20050;-66
2022/10/12 06:00:07;;;;;;;87.03;40.85;;;;;;;;;;5134831;27;20038;-66
2022/10/12 06:03:14;;;;;;;82.93;44.85;;;;;;;;;;5135073;27;20054;-66
2022/10/12 06:06:18;;;;;;;75.88;38.63;;;;;;;;;;5135110;27;20042;-66
2022/10/12 06:09:22;;;;;;;77.97;45.05;;;;;;;;;;5134136;27;20065;-66
2022/10/12 06:12:27;;;;;;;100.60;53.33;;;;;;;;;;5134631;27;20042;-65
2022/10/12 06:15:31;;;;;;;84.50;48.85;;;;;;;;;;5133947;27;20046;-65
2022/10/12 06:18:35;;;;;;;90.22;54.15;;;;;;;;;;5134064;27;20127;-65
2022/10/12 06:21:39;;;;;;;115.13;69.18;;;;;;;;;;5132480;27;20062;-64
2022/10/12 06:24:44;;;;;;;116.50;67.40;;;;;;;;;;5134169;27;20046;-65
2022/10/12 06:27:48;;;;;;;85.65;44.05;;;;;;;;;;5134206;27;20042;-64
2022/10/12 06:30:53;;;;;;;72.03;41.35;;;;;;;;;;5133992;27;20501;-64
2022/10/12 06:33:58;;;;;;;81.07;44.80;;;;;;;;;;5134134;27;20042;-64
2022/10/12 06:37:02;;;;;;;49.78;30.23;;;;;;;;;;5133966;27;20038;-66
2022/10/12 06:40:07;;;;;;;38.42;22.92;;;;;;;;;;5133814;27;20047;-65
2022/10/12 06:43:11;;;;;;;65.47;21.27;;;;;;;;;;5132776;27;20436;-66
2022/10/12 06:46:16;;;;;;;31.27;17.75;;;;;;;;;;5134117;27;20054;-65
2022/10/12 06:49:20;;;;;;;30.48;16.88;;;;;;;;;;5134345;27;20046;-67
2022/10/12 06:52:25;;;;;;;37.35;17.90;;;;;;;;;;5134014;27;20042;-66
2022/10/12 06:55:29;;;;;;;57.63;19.13;;;;;;;;;;5133478;27;20038;-65
2022/10/12 06:58:34;;;;;;;31.58;18.88;;;;;;;;;;5133323;27;20042;-66
2022/10/12 07:01:38;;;;;;;34.92;17.73;;;;;;;;;;5133642;27;20038;-67
2022/10/12 07:04:42;;;;;;;53.42;20.23;;;;;;;;;;5133421;27;20062;-67
2022/10/12 07:07:46;;;;;;;34.55;17.30;;;;;;;;;;5133882;27;20038;-67
2022/10/12 07:10:59;;;;;;;34.42;16.92;;;;;;;;;;5134103;27;20054;-65
2022/10/12 07:14:03;;;;;;;22.13;14.75;;;;;;;;;;5133589;27;20521;-65
2022/10/12 07:17:07;;;;;;;33.97;15.82;;;;;;;;;;5133503;27;20050;-66
2022/10/12 07:20:12;;;;;;;25.27;14.10;;;;;;;;;;5132243;27;20049;-67
2022/10/12 07:23:16;;;;;;;26.88;14.50;;;;;;;;;;5133310;27;20061;-67
2022/10/12 07:26:21;;;;;;;22.60;13.25;;;;;;;;;;5133420;27;20046;-66
2022/10/12 07:29:25;;;;;;;27.95;16.00;;;;;;;;;;5133694;27;20042;-67
2022/10/12 07:32:30;;;;;;;30.73;13.63;;;;;;;;;;5120452;27;20042;-67
2022/10/12 07:35:34;;;;;;;17.30;11.85;;;;;;;;;;5133312;27;20042;-66
2022/10/12 07:38:39;;;;;;;18.33;13.27;;;;;;;;;;5133296;27;20054;-72
2022/10/12 07:41:43;;;;;;;18.95;12.93;;;;;;;;;;5132478;27;20054;-65
2022/10/12 07:44:47;;;;;;;18.95;12.43;;;;;;;;;;5132781;27;20054;-68
2022/10/12 07:47:51;;;;;;;23.55;12.48;;;;;;;;;;5120207;27;20231;-68
2022/10/12 07:50:56;;;;;;;13.30;9.85;;;;;;;;;;5132667;27;20046;-67
2022/10/12 07:54:00;;;;;;;26.35;13.57;;;;;;;;;;5132947;27;20119;-67
2022/10/12 07:57:04;;;;;;;18.17;13.18;;;;;;;;;;5132511;27;20104;-65
2022/10/12 08:00:08;;;;;;;21.45;14.55;;;;;;;;;;5132803;27;20046;-64
2022/10/12 08:03:15;;;;;;;21.02;15.88;;;;;;;;;;5132423;27;20050;-66
2022/10/12 08:06:22;;;;;;;23.23;15.98;;;;;;;;;;5132527;27;20050;-64
2022/10/12 08:09:26;;;;;;;24.35;15.23;;;;;;;;;;5132741;27;20046;-64
2022/10/12 08:12:30;;;;;;;19.40;14.82;;;;;;;;;;5132410;27;20046;-67
2022/10/12 08:15:35;;;;;;;24.50;13.15;;;;;;;;;;5132466;27;20038;-64
2022/10/12 08:18:39;;;;;;;20.42;14.32;;;;;;;;;;5132443;27;20058;-64
2022/10/12 08:21:44;;;;;;;17.17;12.73;;;;;;;;;;5132112;27;20034;-64
2022/10/12 08:24:48;;;;;;;19.27;12.15;;;;;;;;;;5132082;27;20050;-66
2022/10/12 08:27:53;;;;;;;17.00;13.75;;;;;;;;;;5131927;27;20046;-64
2022/10/12 08:30:57;;;;;;;17.42;12.02;;;;;;;;;;5132181;27;20038;-66
2022/10/12 08:34:02;;;;;;;18.40;13.43;;;;;;;;;;5132366;27;20050;-66
2022/10/12 08:37:06;;;;;;;16.27;11.65;;;;;;;;;;5132278;27;20046;-66
2022/10/12 08:40:19;;;;;;;22.50;13.73;;;;;;;;;;5119066;27;20042;-66
2022/10/12 08:43:37;;;;;;;17.52;11.57;;;;;;;;;;5111342;28;20048;-66
2022/10/12 08:46:41;;;;;;;14.30;10.05;;;;;;;;;;5111495;28;20047;-66
2022/10/12 08:49:48;;;;;;;13.60;10.20;;;;;;;;;;5111494;28;20061;-66
2022/10/12 08:53:00;;;;;;;16.80;13.02;;;;;;;;;;5111574;28;20050;-66
2022/10/12 08:56:04;;;;;;;14.02;11.30;;;;;;;;;;5111359;28;20047;-66
2022/10/12 08:59:13;;;;;;;10.15;8.38;;;;;;;;;;5098920;28;20042;-66
2022/10/12 09:02:30;;;;;;;14.73;10.38;;;;;;;;;;5111261;28;20048;-66
2022/10/12 09:05:41;;;;;;;11.73;8.30;;;;;;;;;;5111312;28;20055;-63
2022/10/12 09:08:52;;;;;;;17.30;10.32;;;;;;;;;;5111257;28;20031;-64
2022/10/12 09:11:56;;;;;;;13.48;9.98;;;;;;;;;;5111213;28;20058;-66
2022/10/12 09:15:03;;;;;;;16.83;9.23;;;;;;;;;;5111035;28;20511;-65
2022/10/12 09:18:21;;;;;;;12.20;9.20;;;;;;;;;;5110705;28;20039;-66
2022/10/12 09:21:27;;;;;;;10.95;7.97;;;;;;;;;;5111024;28;20027;-64
2022/10/12 09:24:34;;;;;;;11.05;8.43;;;;;;;;;;5111106;28;20047;-67
2022/10/12 09:27:39;;;;;;;11.55;7.57;;;;;;;;;;5111447;28;20036;-64
2022/10/12 09:30:46;;;;;;;9.30;6.68;;;;;;;;;;5098363;28;20043;-63
2022/10/12 09:33:51;;;;;;;9.85;7.25;;;;;;;;;;5111146;28;20028;-66
2022/10/12 09:36:57;;;;;;;13.80;8.95;;;;;;;;;;5110840;28;20553;-66
2022/10/12 09:40:02;;;;;;;13.77;8.65;;;;;;;;;;5110582;28;20043;-66
2022/10/12 09:43:07;;;;;;;10.52;7.78;;;;;;;;;;5110597;28;20043;-67
2022/10/12 09:46:14;;;;;;;9.60;7.28;;;;;;;;;;5114559;28;20035;-67
2022/10/12 09:49:18;;;;;;;9.45;6.45;;;;;;;;;;5114571;28;20039;-67
2022/10/12 09:52:24;;;;;;;8.10;6.60;;;;;;;;;;5114496;28;20035;-66
2022/10/12 09:55:28;;;;;;;11.35;6.72;;;;;;;;;;5114543;28;20036;-67
2022/10/12 09:58:37;;;;;;;10.68;7.22;;;;;;;;;;5114839;28;20031;-67
2022/10/12 10:01:42;;;;;;;9.68;7.90;;;;;;;;;;5114276;28;20032;-64
2022/10/12 10:04:47;;;;;;;9.25;6.97;;;;;;;;;;5114454;28;20408;-64
2022/10/12 10:07:52;;;;;;;8.55;6.47;;;;;;;;;;5114542;28;20483;-65
2022/10/12 10:10:58;;;;;;;10.10;7.95;;;;;;;;;;5114522;28;20048;-66
2022/10/12 10:14:02;;;;;;;10.73;7.70;;;;;;;;;;5114274;28;20035;-66
2022/10/12 10:17:07;;;;;;;11.25;7.40;;;;;;;;;;5114257;28;20039;-66
2022/10/12 10:20:22;;;;;;;8.65;6.65;;;;;;;;;;5113946;28;20418;-64
2022/10/12 10:23:43;;;;;;;11.00;7.18;;;;;;;;;;5114180;28;20043;-66
2022/10/12 10:26:52;;;;;;;8.50;6.35;;;;;;;;;;5114162;28;20039;-67
2022/10/12 10:30:20;;;;;;;9.27;7.07;;;;;;;;;;5114002;28;20380;-67
2022/10/12 10:33:24;;;;;;;11.93;8.25;;;;;;;;;;5113946;28;20389;-67
2022/10/12 10:36:31;;;;;;;10.10;7.75;;;;;;;;;;5113964;28;20039;-67
2022/10/12 10:39:39;;;;;;;10.45;6.78;;;;;;;;;;5113532;28;20044;-66
2022/10/12 10:42:48;;;;;;;12.25;7.60;;;;;;;;;;5113734;28;20043;-66
2022/10/12 10:45:54;;;;;;;8.65;7.03;;;;;;;;;;5113940;28;20043;-67
2022/10/12 10:49:05;;;;;;;8.93;6.65;;;;;;;;;;5114078;28;20032;-67
2022/10/12 10:52:24;;;;;;;8.77;6.87;;;;;;;;;;5113283;28;20035;-66
2022/10/12 10:55:44;;;;;;;7.13;6.20;;;;;;;;;;5114157;28;20036;-66
2022/10/12 10:58:51;;;;;;;11.02;6.97;;;;;;;;;;5112246;28;20376;-67
2022/10/12 11:01:57;;;;;;;10.43;7.85;;;;;;;;;;5111729;28;20036;-67
2022/10/12 11:05:23;;;;;;;9.68;7.10;;;;;;;;;;5111584;28;20043;-68
2022/10/12 11:08:29;;;;;;;10.75;7.50;;;;;;;;;;5111280;28;20040;-68
2022/10/12 11:11:35;;;;;;;10.60;7.00;;;;;;;;;;5111568;28;20479;-66
2022/10/12 11:14:43;;;;;;;10.50;7.18;;;;;;;;;;5111793;28;20035;-67
2022/10/12 11:17:49;;;;;;;11.85;7.95;;;;;;;;;;5112972;28;20503;-67
2022/10/12 11:21:07;;;;;;;10.10;7.07;;;;;;;;;;5112765;28;20036;-68
2022/10/12 11:24:17;;;;;;;14.05;7.20;;;;;;;;;;5112623;28;20052;-67
2022/10/12 11:27:29;;;;;;;7.57;6.65;;;;;;;;;;5112977;28;20031;-66
2022/10/12 11:30:38;;;;;;;8.95;7.13;;;;;;;;;;5112728;28;20364;-66
2022/10/12 11:33:43;;;;;;;7.43;6.72;;;;;;;;;;5112132;28;20407;-66
2022/10/12 11:36:49;;;;;;;8.98;6.72;;;;;;;;;;5099988;28;20055;-66
2022/10/12 11:39:53;;;;;;;12.90;9.23;;;;;;;;;;5112298;28;20040;-66
2022/10/12 11:43:00;;;;;;;11.10;7.65;;;;;;;;;;5112364;28;20416;-68
2022/10/12 11:46:07;;;;;;;9.57;7.30;;;;;;;;;;5111392;28;20383;-66
2022/10/12 11:49:18;;;;;;;14.10;8.18;;;;;;;;;;5111612;28;20039;-66
2022/10/12 11:52:24;;;;;;;11.55;7.93;;;;;;;;;;5111691;28;20047;-66
2022/10/12 11:55:48;;;;;;;14.88;8.90;;;;;;;;;;5111113;28;20044;-66
2022/10/12 11:58:56;;;;;;;8.20;7.35;;;;;;;;;;5112385;28;20507;-66
2022/10/12 12:02:19;;;;;;;10.70;8.27;;;;;;;;;;5112137;28;20043;-66
2022/10/12 12:05:24;;;;;;;16.35;10.02;;;;;;;;;;5111724;28;20039;-66
2022/10/12 12:08:40;;;;;;;12.68;8.27;;;;;;;;;;5111647;28;20042;-66
2022/10/12 12:11:45;;;;;;;12.23;9.27;;;;;;;;;;5111818;28;20040;-66
2022/10/12 12:14:55;;;;;;;20.85;9.82;;;;;;;;;;5112123;28;20043;-66
2022/10/12 12:18:19;;;;;;;15.23;8.80;;;;;;;;;;5111742;28;20039;-66
2022/10/12 12:21:24;;;;;;;12.70;8.13;;;;;;;;;;5111554;28;20035;-66
2022/10/12 12:24:28;;;;;;;16.45;9.35;;;;;;;;;;5111649;28;20047;-66
2022/10/12 12:27:38;;;;;;;16.35;9.27;;;;;;;;;;5111592;28;20036;-66
2022/10/12 12:30:54;;;;;;;10.38;7.53;;;;;;;;;;5111576;28;20040;-66
2022/10/12 12:34:16;;;;;;;11.75;7.90;;;;;;;;;;5111269;28;20061;-66
2022/10/12 12:37:21;;;;;;;15.68;8.10;;;;;;;;;;5111323;28;20047;-68
2022/10/12 12:40:25;;;;;;;16.50;8.68;;;;;;;;;;5111156;28;20401;-66
2022/10/12 12:43:29;;;;;;;7.80;7.00;;;;;;;;;;5111157;28;20050;-65
2022/10/12 12:46:52;;;;;;;16.90;8.00;;;;;;;;;;5111507;28;20423;-67
2022/10/12 12:50:15;;;;;;;11.88;7.35;;;;;;;;;;5111354;28;20040;-70
2022/10/12 12:53:21;;;;;;;12.57;10.35;;;;;;;;;;5098973;28;20028;-69
2022/10/12 12:56:41;;;;;;;12.90;8.60;;;;;;;;;;5111567;28;20046;-70
2022/10/12 13:00:03;;;;;;;11.73;8.00;;;;;;;;;;5111194;28;20103;-70
2022/10/12 13:03:11;;;;;;;15.23;9.32;;;;;;;;;;5111149;28;20301;-69
2022/10/12 13:06:25;;;;;;;16.95;7.55;;;;;;;;;;5111017;28;20047;-70
2022/10/12 13:09:58;;;;;;;17.17;8.43;;;;;;;;;;5111264;28;20036;-69
2022/10/12 13:13:03;;;;;;;16.15;8.57;;;;;;;;;;5112891;28;20044;-70
2022/10/12 13:16:19;;;;;;;12.25;7.50;;;;;;;;;;5111340;28;20043;-68
2022/10/12 13:19:24;;;;;;;11.10;8.27;;;;;;;;;;5114943;28;20510;-66
2022/10/12 13:22:31;;;;;;;8.57;6.72;;;;;;;;;;5115365;28;20039;-66
2022/10/12 13:25:36;;;;;;;9.95;7.72;;;;;;;;;;5114911;28;20384;-68
2022/10/12 13:28:42;;;;;;;12.90;7.47;;;;;;;;;;5115012;28;20032;-68
2022/10/12 13:31:48;;;;;;;11.60;8.23;;;;;;;;;;5114742;28;20035;-68
2022/10/12 13:34:54;;;;;;;11.98;8.57;;;;;;;;;;5114543;28;20040;-68
2022/10/12 13:38:00;;;;;;;9.50;7.60;;;;;;;;;;5102145;28;20039;-70
2022/10/12 13:41:09;;;;;;;12.00;7.00;;;;;;;;;;5114410;28;20047;-67
2022/10/12 13:44:26;;;;;;;18.13;8.80;;;;;;;;;;5114620;28;20052;-69
2022/10/12 13:47:31;;;;;;;13.18;8.23;;;;;;;;;;5114477;28;20501;-71
2022/10/12 13:50:36;;;;;;;13.27;8.75;;;;;;;;;;5114422;28;20039;-67
2022/10/12 13:53:40;;;;;;;13.93;8.85;;;;;;;;;;5114121;28;20040;-66
2022/10/12 13:56:46;;;;;;;11.13;7.53;;;;;;;;;;5114582;28;20043;-65
2022/10/12 13:59:53;;;;;;;11.52;7.60;;;;;;;;;;5101757;28;20047;-65
2022/10/12 14:02:59;;;;;;;8.05;6.93;;;;;;;;;;5114726;28;20046;-66
2022/10/12 14:06:03;;;;;;;13.02;9.02;;;;;;;;;;5114217;28;20048;-66
2022/10/12 14:09:11;;;;;;;11.35;7.28;;;;;;;;;;5114291;28;20043;-68
2022/10/12 14:12:16;;;;;;;12.05;9.40;;;;;;;;;;5114289;28;20044;-67
2022/10/12 14:15:21;;;;;;;14.40;8.38;;;;;;;;;;5114380;28;20054;-68
2022/10/12 14:18:32;;;;;;;11.45;8.35;;;;;;;;;;5113989;28;20043;-69
2022/10/12 14:21:37;;;;;;;9.73;7.57;;;;;;;;;;5114195;28;20035;-66
2022/10/12 14:24:41;;;;;;;8.40;7.20;;;;;;;;;;5114075;28;20044;-66
2022/10/12 14:27:46;;;;;;;14.43;7.72;;;;;;;;;;5113558;28;20039;-65
2022/10/12 14:30:51;;;;;;;18.55;10.07;;;;;;;;;;5113217;28;20046;-68
2022/10/12 14:34:15;;;;;;;17.08;9.95;;;;;;;;;;5113623;28;20055;-67
2022/10/12 14:37:24;;;;;;;21.77;9.80;;;;;;;;;;5113823;28;20038;-68
2022/10/12 14:40:31;;;;;;;19.20;8.80;;;;;;;;;;5113525;28;20054;-68
2022/10/12 14:43:35;;;;;;;13.38;8.57;;;;;;;;;;5113637;28;20047;-65
2022/10/12 14:46:42;;;;;;;19.98;9.73;;;;;;;;;;5113348;28;20060;-66
2022/10/12 14:49:47;;;;;;;17.92;8.55;;;;;;;;;;5113322;28;20398;-64
2022/10/12 14:52:53;;;;;;;16.20;9.23;;;;;;;;;;5113257;28;20027;-67
2022/10/12 14:55:57;;;;;;;21.73;10.70;;;;;;;;;;5113464;28;20035;-67
2022/10/12 14:59:01;;;;;;;11.77;8.55;;;;;;;;;;5113207;28;20043;-67
2022/10/12 15:02:18;;;;;;;16.05;9.63;;;;;;;;;;5112793;28;20035;-67
2022/10/12 15:05:24;;;;;;;18.85;9.48;;;;;;;;;;5112898;28;20058;-68
2022/10/12 15:08:28;;;;;;;21.10;9.57;;;;;;;;;;5112721;28;20035;-68
2022/10/12 15:11:32;;;;;;;17.90;10.38;;;;;;;;;;5112955;28;20501;-66
2022/10/12 15:14:37;;;;;;;13.38;9.27;;;;;;;;;;5112297;28;20043;-65
2022/10/12 15:17:42;;;;;;;18.77;10.25;;;;;;;;;;5112620;28;20050;-64
2022/10/12 15:20:47;;;;;;;13.73;8.60;;;;;;;;;;5112664;28;20133;-65
2022/10/12 15:23:51;;;;;;;21.77;10.48;;;;;;;;;;5112424;28;20601;-64
2022/10/12 15:26:55;;;;;;;14.75;9.23;;;;;;;;;;5112620;28;20045;-65
2022/10/12 15:30:00;;;;;;;16.48;9.70;;;;;;;;;;5112452;28;20031;-67
2022/10/12 15:33:04;;;;;;;11.43;9.90;;;;;;;;;;5112800;28;20424;-68
2022/10/12 15:36:09;;;;;;;12.90;8.63;;;;;;;;;;5112501;28;20471;-69
2022/10/12 15:39:14;;;;;;;19.77;10.75;;;;;;;;;;5112581;28;20047;-67
2022/10/12 15:42:18;;;;;;;39.22;28.98;;;;;;;;;;5111497;28;20403;-68
2022/10/12 15:45:25;;;;;;;37.42;15.45;;;;;;;;;;5112310;28;20066;-68
2022/10/12 15:48:29;;;;;;;27.88;15.05;;;;;;;;;;5112423;28;20509;-68
2022/10/12 15:51:37;;;;;;;30.48;13.38;;;;;;;;;;5112343;28;20047;-68
2022/10/12 15:54:41;;;;;;;20.98;12.23;;;;;;;;;;5112185;28;20043;-68
2022/10/12 15:57:46;;;;;;;19.50;12.45;;;;;;;;;;5112197;28;20043;-68
2022/10/12 16:00:50;;;;;;;23.90;12.70;;;;;;;;;;5112124;28;20513;-68
2022/10/12 16:03:55;;;;;;;22.67;11.30;;;;;;;;;;5111858;28;20046;-68
2022/10/12 16:07:00;;;;;;;21.65;11.25;;;;;;;;;;5112087;28;20042;-68
2022/10/12 16:10:05;;;;;;;21.33;10.25;;;;;;;;;;5111755;28;20054;-68
2022/10/12 16:13:10;;;;;;;26.60;11.85;;;;;;;;;;5111834;28;20034;-66
2022/10/12 16:16:15;;;;;;;24.55;11.20;;;;;;;;;;5111653;28;20498;-65
2022/10/12 16:19:20;;;;;;;17.25;10.88;;;;;;;;;;5111458;28;20050;-66
2022/10/12 16:22:24;;;;;;;20.58;11.85;;;;;;;;;;5099054;28;20043;-66
2022/10/12 16:25:28;;;;;;;30.90;13.48;;;;;;;;;;5111460;28;20055;-66
2022/10/12 16:28:33;;;;;;;24.05;13.32;;;;;;;;;;5111606;28;20046;-66
2022/10/12 16:31:37;;;;;;;30.85;18.30;;;;;;;;;;5111385;28;20043;-70
2022/10/12 16:34:42;;;;;;;17.45;11.73;;;;;;;;;;5111548;28;20047;-70
2022/10/12 16:37:46;;;;;;;15.05;11.05;;;;;;;;;;5111719;28;20051;-67
2022/10/12 16:40:50;;;;;;;35.20;17.02;;;;;;;;;;5098665;28;20079;-70
2022/10/12 16:43:55;;;;;;;60.60;28.75;;;;;;;;;;5111622;28;20066;-70
2022/10/12 16:47:01;;;;;;;27.20;14.60;;;;;;;;;;5111825;28;20074;-67
2022/10/12 16:50:05;;;;;;;22.55;12.80;;;;;;;;;;5111170;28;20047;-71
2022/10/12 16:53:09;;;;;;;23.17;13.23;;;;;;;;;;5110699;28;20050;-70
2022/10/12 16:56:14;;;;;;;30.88;17.02;;;;;;;;;;5110317;28;20042;-69
2022/10/12 16:59:18;;;;;;;21.25;13.85;;;;;;;;;;5111201;28;20638;-70
2022/10/12 17:02:22;;;;;;;42.67;21.40;;;;;;;;;;5110951;28;20051;-70
2022/10/12 17:05:27;;;;;;;34.30;15.98;;;;;;;;;;5110862;28;20054;-70
2022/10/12 17:08:37;;;;;;;26.45;15.35;;;;;;;;;;5111072;28;20043;-70
2022/10/12 17:11:41;;;;;;;39.97;14.75;;;;;;;;;;5110741;28;20410;-70
2022/10/12 17:14:46;;;;;;;36.85;16.83;;;;;;;;;;5111141;28;20513;-70
2022/10/12 17:17:52;;;;;;;35.03;16.80;;;;;;;;;;5111131;28;20054;-70
2022/10/12 17:21:00;;;;;;;37.10;14.77;;;;;;;;;;5110564;28;20043;-70
2022/10/12 17:24:04;;;;;;;30.13;14.43;;;;;;;;;;5110613;28;20411;-70
2022/10/12 17:27:10;;;;;;;31.55;13.80;;;;;;;;;;5110513;28;20043;-70
2022/10/12 17:30:14;;;;;;;29.60;13.43;;;;;;;;;;5110678;28;20047;-70
2022/10/12 17:33:19;;;;;;;20.75;13.32;;;;;;;;;;5110347;28;20105;-69
2022/10/12 17:36:24;;;;;;;28.05;15.23;;;;;;;;;;5110668;28;20046;-70
2022/10/12 17:39:31;;;;;;;31.85;15.30;;;;;;;;;;5110547;28;20038;-69
2022/10/12 17:42:36;;;;;;;25.75;14.43;;;;;;;;;;5111114;28;20055;-70
2022/10/12 17:45:40;;;;;;;23.35;14.52;;;;;;;;;;5110680;28;20078;-69
2022/10/12 17:48:45;;;;;;;31.85;15.05;;;;;;;;;;5110836;28;20043;-70
2022/10/12 17:51:49;;;;;;;37.38;17.27;;;;;;;;;;5097970;28;20394;-71
2022/10/12 17:54:53;;;;;;;26.88;16.13;;;;;;;;;;5110650;28;20043;-70
2022/10/12 17:57:58;;;;;;;24.42;15.98;;;;;;;;;;5110889;28;20051;-70
2022/10/12 18:01:14;;;;;;;35.60;16.27;;;;;;;;;;5097937;28;20069;-70
2022/10/12 18:04:18;;;;;;;37.25;17.13;;;;;;;;;;5110601;28;20051;-71
2022/10/12 18:07:22;;;;;;;37.83;16.73;;;;;;;;;;5114320;28;20434;-71
2022/10/12 18:10:27;;;;;;;35.38;17.30;;;;;;;;;;5114615;28;20043;-70